createdAt,value
2023-01-27T00:00:43.652Z,87.32
2023-01-27T00:03:15.109Z,87.50
2023-01-27T00:05:44.315Z,87.12
2023-01-27T00:08:13.486Z,87.23
2023-01-27T00:11:12.566Z,87.15
2023-01-27T00:13:43.736Z,86.62
2023-01-27T00:16:13.224Z,87.14
2023-01-27T00:18:42.405Z,87.28
2023-01-27T00:24:12.025Z,87.21
2023-01-27T00:26:46.283Z,87.37
2023-01-27T00:29:17.361Z,87.70
2023-01-27T00:32:04.576Z,87.35
2023-01-27T00:34:33.961Z,86.90
2023-01-27T00:37:02.987Z,86.53
2023-01-27T00:39:40.379Z,86.71
2023-01-27T00:42:12.473Z,87.21
2023-01-27T00:45:03.739Z,87.53
2023-01-27T00:47:33.597Z,87.79
2023-01-27T00:50:03.065Z,87.96
2023-01-27T00:52:33.391Z,88.53
2023-01-27T00:55:02.560Z,88.29
2023-01-27T00:57:31.924Z,88.04
2023-01-27T01:00:03.216Z,88.08
2023-01-27T01:02:34.121Z,88.25
2023-01-27T01:05:03.965Z,88.64
2023-01-27T01:07:33.756Z,88.48
2023-01-27T01:10:15.260Z,88.26
2023-01-27T01:12:51.147Z,88.82
2023-01-27T01:15:28.000Z,88.65
2023-01-27T01:17:57.339Z,88.93
2023-01-27T01:20:26.709Z,88.70
2023-01-27T01:22:56.894Z,88.90
2023-01-27T01:25:26.987Z,88.61
2023-01-27T01:27:57.831Z,88.33
2023-01-27T01:30:29.099Z,88.92
2023-01-27T01:32:59.310Z,88.85
2023-01-27T01:35:28.572Z,88.61
2023-01-27T01:37:57.741Z,89.25
2023-01-27T01:40:32.873Z,89.05
2023-01-27T01:43:04.178Z,88.70
2023-01-27T01:45:53.208Z,88.82
2023-01-27T01:48:38.329Z,89.33
2023-01-27T01:51:13.199Z,89.12
2023-01-27T01:53:45.513Z,88.97
2023-01-27T01:56:25.279Z,89.52
2023-01-27T01:58:58.266Z,89.54
2023-01-27T02:01:29.801Z,89.22
2023-01-27T02:04:04.729Z,89.05
2023-01-27T02:06:49.358Z,89.22
2023-01-27T02:09:19.192Z,88.70
2023-01-27T02:11:48.744Z,89.13
2023-01-27T02:14:19.241Z,89.40
2023-01-27T02:16:50.654Z,89.29
2023-01-27T02:19:39.475Z,89.79
2023-01-27T02:22:17.507Z,90.73
2023-01-27T02:24:50.180Z,90.24
2023-01-27T02:27:21.420Z,90.32
2023-01-27T02:29:50.894Z,90.06
2023-01-27T02:32:27.644Z,90.37
2023-01-27T02:34:59.359Z,90.60
2023-01-27T02:37:29.434Z,90.04
2023-01-27T02:40:04.880Z,90.36
2023-01-27T02:42:36.619Z,90.41
2023-01-27T02:45:06.696Z,90.41
2023-01-27T02:50:17.684Z,90.29
2023-01-27T02:52:46.987Z,89.73
2023-01-27T02:55:16.323Z,89.68
2023-01-27T02:57:58.196Z,89.36
2023-01-27T03:00:43.927Z,87.65
2023-01-27T03:03:20.372Z,87.99
2023-01-27T03:05:51.058Z,88.12
2023-01-27T03:08:26.785Z,88.42
2023-01-27T03:10:57.601Z,88.10
2023-01-27T03:13:29.660Z,87.79
2023-01-27T03:16:14.728Z,87.17
2023-01-27T03:18:50.782Z,86.70
2023-01-27T03:21:21.577Z,86.63
2023-01-27T03:23:51.066Z,85.46
2023-01-27T03:26:29.315Z,85.47
2023-01-27T03:31:51.543Z,86.23
2023-01-27T03:34:23.540Z,86.10
2023-01-27T03:37:10.576Z,85.74
2023-01-27T03:39:58.473Z,85.72
2023-01-27T03:42:40.587Z,85.32
2023-01-27T03:45:27.103Z,84.95
2023-01-27T03:48:01.235Z,85.28
2023-01-27T03:50:37.061Z,85.22
2023-01-27T03:53:07.514Z,85.25
2023-01-27T03:55:38.444Z,85.59
2023-01-27T03:58:25.121Z,85.76
2023-01-27T04:00:58.002Z,86.01
2023-01-27T04:03:47.213Z,85.80
2023-01-27T04:06:31.072Z,86.14
2023-01-27T04:09:01.080Z,86.15
2023-01-27T04:11:44.251Z,85.86
2023-01-27T04:14:15.839Z,86.67
2023-01-27T04:16:52.509Z,86.54
2023-01-27T04:19:21.971Z,86.54
2023-01-27T04:21:51.698Z,85.98
2023-01-27T04:24:27.296Z,86.45
2023-01-27T04:26:58.827Z,86.58
2023-01-27T04:29:35.582Z,86.24
2023-01-27T04:32:07.881Z,86.01
2023-01-27T04:34:37.706Z,86.52
2023-01-27T04:37:08.696Z,86.53
2023-01-27T04:39:38.094Z,85.83
2023-01-27T04:42:07.332Z,86.15
2023-01-27T04:44:36.584Z,86.15
2023-01-27T04:47:07.723Z,86.26
2023-01-27T04:49:36.938Z,86.32
2023-01-27T04:52:06.732Z,86.19
2023-01-27T04:57:15.912Z,86.19
2023-01-27T04:59:45.887Z,85.99
2023-01-27T05:02:17.936Z,86.10
2023-01-27T05:04:52.219Z,86.50
2023-01-27T05:07:26.606Z,86.51
2023-01-27T05:09:55.778Z,86.45
2023-01-27T05:12:25.078Z,86.50
2023-01-27T05:14:54.994Z,86.26
2023-01-27T05:17:35.768Z,86.73
2023-01-27T05:20:05.056Z,87.02
2023-01-27T05:22:34.254Z,87.53
2023-01-27T05:25:03.405Z,87.76
2023-01-27T05:27:32.692Z,87.51
2023-01-27T05:30:01.785Z,87.59
2023-01-27T05:32:39.961Z,87.28
2023-01-27T05:35:14.474Z,87.73
2023-01-27T05:37:43.937Z,87.40
2023-01-27T05:40:14.708Z,87.30
2023-01-27T05:42:43.830Z,87.65
2023-01-27T05:45:13.769Z,87.59
2023-01-27T05:47:45.037Z,87.05
2023-01-27T05:50:19.752Z,87.26
2023-01-27T05:52:48.804Z,87.09
2023-01-27T05:55:18.122Z,87.20
2023-01-27T06:00:23.360Z,87.49
2023-01-27T06:02:54.942Z,87.45
2023-01-27T06:05:24.434Z,87.68
2023-01-27T06:07:53.422Z,88.38
2023-01-27T06:10:22.705Z,88.23
2023-01-27T06:12:51.867Z,88.86
2023-01-27T06:15:23.134Z,88.81
2023-01-27T06:17:55.722Z,88.70
2023-01-27T06:20:25.008Z,88.77
2023-01-27T06:22:54.188Z,88.84
2023-01-27T06:25:23.371Z,88.50
2023-01-27T06:27:56.315Z,88.38
2023-01-27T06:30:26.164Z,88.36
2023-01-27T06:32:57.667Z,87.92
2023-01-27T06:35:26.808Z,87.52
2023-01-27T06:37:55.918Z,87.56
2023-01-27T06:40:25.682Z,87.14
2023-01-27T06:42:54.772Z,87.21
2023-01-27T06:45:25.735Z,86.97
2023-01-27T06:48:01.425Z,86.38
2023-01-27T06:50:31.644Z,85.79
2023-01-27T06:53:02.745Z,85.92
2023-01-27T06:55:33.605Z,86.41
2023-01-27T06:58:03.834Z,86.30
2023-01-27T07:00:33.155Z,86.03
2023-01-27T07:03:04.718Z,85.95
2023-01-27T07:05:35.179Z,85.33
2023-01-27T07:08:04.487Z,85.42
2023-01-27T07:10:34.006Z,85.29
2023-01-27T07:13:07.557Z,85.54
2023-01-27T07:15:36.988Z,85.56
2023-01-27T07:18:08.952Z,85.53
2023-01-27T07:20:38.190Z,85.21
2023-01-27T07:23:07.725Z,85.10
2023-01-27T07:25:37.361Z,84.73
2023-01-27T07:28:07.298Z,84.63
2023-01-27T07:30:38.413Z,83.95
2023-01-27T07:33:10.805Z,83.94
2023-01-27T07:35:42.152Z,84.00
2023-01-27T07:38:12.059Z,83.63
2023-01-27T07:40:41.138Z,82.63
2023-01-27T07:43:12.115Z,82.84
2023-01-27T07:45:43.103Z,83.25
2023-01-27T07:48:14.384Z,83.29
2023-01-27T07:50:43.624Z,82.60
2023-01-27T07:53:13.473Z,83.05
2023-01-27T07:55:43.064Z,83.07
2023-01-27T07:58:12.353Z,83.00
2023-01-27T08:00:41.540Z,83.01
2023-01-27T08:03:23.042Z,82.90
2023-01-27T08:05:52.683Z,82.64
2023-01-27T08:08:22.248Z,82.42
2023-01-27T08:11:03.033Z,82.38
2023-01-27T08:13:33.477Z,81.95
2023-01-27T08:16:09.500Z,81.75
2023-01-27T08:18:40.643Z,81.55
2023-01-27T08:21:12.759Z,81.65
2023-01-27T08:23:42.025Z,81.21
2023-01-27T08:26:11.291Z,81.40
2023-01-27T08:28:43.255Z,81.42
2023-01-27T08:31:14.564Z,81.00
2023-01-27T08:33:47.215Z,80.39
2023-01-27T08:36:18.611Z,80.28
2023-01-27T08:38:53.468Z,80.10
2023-01-27T08:41:24.893Z,80.35
2023-01-27T08:43:54.194Z,80.39
2023-01-27T08:46:23.556Z,80.17
2023-01-27T08:48:59.918Z,80.10
2023-01-27T08:51:29.249Z,80.43
2023-01-27T08:53:58.675Z,80.73
2023-01-27T08:56:32.779Z,80.26
2023-01-27T08:59:02.559Z,80.02
2023-01-27T09:01:31.886Z,79.66
2023-01-27T09:04:08.125Z,79.86
2023-01-27T09:06:37.796Z,79.79
2023-01-27T09:09:13.452Z,79.60
2023-01-27T09:11:45.235Z,79.38
2023-01-27T09:14:20.742Z,79.50
2023-01-27T09:16:51.071Z,79.53
2023-01-27T09:19:24.480Z,79.31
2023-01-27T09:21:54.794Z,79.88
2023-01-27T09:24:24.288Z,80.06
2023-01-27T09:26:54.109Z,79.45
2023-01-27T09:29:23.366Z,80.10
2023-01-27T09:31:52.597Z,79.75
2023-01-27T09:34:23.835Z,79.83
2023-01-27T09:36:58.365Z,79.34
2023-01-27T09:39:33.549Z,79.52
2023-01-27T09:42:29.296Z,79.19
2023-01-27T09:45:30.990Z,79.59
2023-01-27T09:48:12.363Z,79.78
2023-01-27T09:50:46.267Z,79.45
2023-01-27T09:53:54.112Z,79.45
2023-01-27T09:56:40.171Z,79.55
2023-01-27T09:59:23.504Z,79.65
2023-01-27T10:02:11.693Z,79.65
2023-01-27T10:05:11.355Z,79.34
2023-01-27T10:08:01.560Z,79.03
2023-01-27T10:10:50.725Z,79.23
2023-01-27T10:13:33.003Z,78.94
2023-01-27T10:16:15.079Z,79.06
2023-01-27T10:19:08.212Z,78.88
2023-01-27T10:21:45.062Z,78.71
2023-01-27T10:24:28.636Z,78.23
2023-01-27T10:27:08.875Z,78.55
2023-01-27T10:29:46.650Z,78.52
2023-01-27T10:32:27.785Z,78.69
2023-01-27T10:35:19.345Z,78.67
2023-01-27T10:38:01.197Z,78.75
2023-01-27T10:40:42.033Z,78.55
2023-01-27T10:43:18.920Z,78.70
2023-01-27T10:45:58.813Z,77.97
2023-01-27T10:48:38.329Z,78.19
2023-01-27T10:51:18.282Z,78.30
2023-01-27T10:53:59.222Z,77.69
2023-01-27T10:56:38.550Z,78.24
2023-01-27T10:59:14.690Z,78.77
2023-01-27T11:01:49.080Z,78.82
2023-01-27T11:04:33.978Z,78.99
2023-01-27T11:07:03.680Z,79.02
2023-01-27T11:09:36.495Z,79.09
2023-01-27T11:12:12.426Z,79.11
2023-01-27T11:14:47.414Z,79.20
2023-01-27T11:17:22.043Z,79.58
2023-01-27T11:20:01.298Z,79.54
2023-01-27T11:22:39.099Z,79.57
2023-01-27T11:25:18.770Z,79.46
2023-01-27T11:30:49.080Z,79.47
2023-01-27T11:33:25.005Z,79.55
2023-01-27T11:35:55.805Z,79.84
2023-01-27T11:38:30.187Z,80.20
2023-01-27T11:40:59.409Z,80.04
2023-01-27T11:43:42.829Z,79.95
2023-01-27T11:46:16.606Z,79.87
2023-01-27T11:48:55.777Z,79.08
2023-01-27T11:51:28.583Z,79.76
2023-01-27T11:54:05.207Z,79.27
2023-01-27T11:56:37.647Z,79.50
2023-01-27T11:59:16.862Z,79.85
2023-01-27T12:01:50.989Z,79.77
2023-01-27T12:04:27.823Z,79.80
2023-01-27T12:07:03.200Z,80.05
2023-01-27T12:09:39.145Z,80.12
2023-01-27T12:12:24.967Z,81.04
2023-01-27T12:15:06.727Z,80.95
2023-01-27T12:17:40.929Z,81.25
2023-01-27T12:20:28.374Z,81.01
2023-01-27T12:23:01.337Z,81.27
2023-01-27T12:25:34.099Z,81.36
2023-01-27T12:28:06.365Z,81.68
2023-01-27T12:30:42.753Z,81.62
2023-01-27T12:33:15.709Z,81.55
2023-01-27T12:35:51.465Z,80.60
2023-01-27T12:38:23.871Z,81.01
2023-01-27T12:43:55.153Z,82.10
2023-01-27T12:54:22.694Z,80.71
2023-01-27T12:56:53.509Z,81.05
2023-01-27T12:59:26.191Z,81.66
2023-01-27T13:02:02.802Z,82.16
2023-01-27T13:04:32.558Z,82.77
2023-01-27T13:07:10.159Z,83.00
2023-01-27T13:09:51.653Z,82.92
2023-01-27T13:12:29.465Z,82.83
2023-01-27T13:15:00.763Z,82.73
2023-01-27T13:17:32.419Z,82.62
2023-01-27T13:20:07.048Z,83.38
2023-01-27T13:22:46.427Z,83.68
2023-01-27T13:25:27.932Z,83.47
2023-01-27T13:28:01.337Z,83.59
2023-01-27T13:30:40.296Z,83.99
2023-01-27T13:33:25.769Z,84.16
2023-01-27T13:36:02.391Z,84.36
2023-01-27T13:38:39.374Z,84.54
2023-01-27T13:41:26.708Z,84.67
2023-01-27T13:44:03.923Z,84.47
2023-01-27T13:46:39.046Z,84.37
2023-01-27T13:49:19.212Z,84.28
2023-01-27T13:51:48.410Z,84.57
2023-01-27T13:54:18.130Z,84.39
2023-01-27T13:57:02.727Z,84.89
2023-01-27T13:59:42.046Z,84.75
2023-01-27T14:02:37.463Z,84.79
2023-01-27T14:05:29.484Z,84.85
2023-01-27T14:08:09.462Z,84.51
2023-01-27T14:10:44.605Z,84.54
2023-01-27T14:13:31.422Z,84.73
2023-01-27T14:16:07.505Z,84.90
2023-01-27T14:18:41.445Z,84.89
2023-01-27T14:21:34.683Z,85.29
2023-01-27T14:24:23.795Z,85.33
2023-01-27T14:27:00.506Z,85.39
2023-01-27T14:29:41.117Z,85.65
2023-01-27T14:32:21.127Z,85.96
2023-01-27T14:35:18.217Z,85.92
2023-01-27T14:38:00.956Z,85.78
2023-01-27T14:40:46.478Z,85.79
2023-01-27T14:43:26.326Z,85.71
2023-01-27T14:46:21.407Z,86.30
2023-01-27T14:49:07.569Z,86.39
2023-01-27T14:51:44.366Z,86.34
2023-01-27T14:54:41.305Z,85.94
2023-01-27T14:57:24.698Z,86.47
2023-01-27T15:00:05.195Z,85.89
2023-01-27T15:02:47.860Z,86.43
2023-01-27T15:05:32.469Z,86.48
2023-01-27T15:08:17.069Z,86.68
2023-01-27T15:11:03.263Z,86.44
2023-01-27T15:13:49.373Z,86.39
2023-01-27T15:16:44.705Z,86.90
2023-01-27T15:19:44.529Z,86.23
2023-01-27T15:22:40.545Z,86.18
2023-01-27T15:25:33.154Z,86.43
2023-01-27T15:28:03.735Z,86.27
2023-01-27T15:30:37.709Z,86.67
2023-01-27T15:33:47.697Z,87.30
2023-01-27T15:36:32.387Z,86.86
2023-01-27T15:39:17.295Z,86.35
2023-01-27T15:41:55.948Z,86.43
2023-01-27T15:44:32.155Z,87.02
2023-01-27T15:47:14.551Z,87.02
2023-01-27T15:49:47.864Z,86.49
2023-01-27T15:52:30.442Z,86.69
2023-01-27T15:55:02.094Z,86.78
2023-01-27T15:57:37.256Z,86.70
2023-01-27T16:00:09.271Z,87.12
2023-01-27T16:02:47.297Z,87.32
2023-01-27T16:05:25.802Z,87.28
2023-01-27T16:08:01.768Z,86.76
2023-01-27T16:10:35.321Z,86.87
2023-01-27T16:13:27.829Z,87.63
2023-01-27T16:16:29.291Z,87.21
2023-01-27T16:19:05.528Z,87.17
2023-01-27T16:21:43.818Z,87.05
2023-01-27T16:24:26.430Z,86.80
2023-01-27T16:27:05.819Z,87.03
2023-01-27T16:29:42.947Z,87.22
2023-01-27T16:32:18.764Z,87.42
2023-01-27T16:34:56.108Z,87.23
2023-01-27T16:37:27.626Z,87.50
2023-01-27T16:40:05.915Z,87.80
2023-01-27T16:42:38.464Z,87.50
2023-01-27T16:45:21.574Z,88.02
2023-01-27T16:47:55.528Z,87.52
2023-01-27T16:50:40.529Z,88.04
2023-01-27T16:53:18.848Z,87.93
2023-01-27T16:56:07.369Z,88.19
2023-01-27T16:58:46.079Z,87.36
2023-01-27T17:01:32.161Z,87.50
2023-01-27T17:04:17.951Z,87.73
2023-01-27T17:06:55.553Z,87.46
2023-01-27T17:09:27.220Z,87.38
2023-01-27T17:14:42.263Z,87.40
2023-01-27T17:17:19.759Z,87.57
2023-01-27T17:19:50.672Z,87.48
2023-01-27T17:22:24.498Z,87.28
2023-01-27T17:24:55.767Z,87.24
2023-01-27T17:27:30.820Z,87.64
2023-01-27T17:30:04.625Z,87.43
2023-01-27T17:32:38.231Z,87.80
2023-01-27T17:35:10.455Z,87.41
2023-01-27T17:37:48.751Z,87.58
2023-01-27T17:40:20.822Z,87.37
2023-01-27T17:42:53.819Z,87.68
2023-01-27T17:45:25.927Z,87.57
2023-01-27T17:47:56.119Z,87.56
2023-01-27T17:50:27.368Z,87.34
2023-01-27T17:55:37.971Z,87.47
2023-01-27T17:58:16.627Z,87.62
2023-01-27T18:00:48.318Z,87.37
2023-01-27T18:03:32.440Z,87.30
2023-01-27T18:06:03.561Z,87.48
2023-01-27T18:08:36.310Z,87.24
2023-01-27T18:11:30.709Z,87.44
2023-01-27T18:14:09.009Z,87.14
2023-01-27T18:16:38.494Z,87.08
2023-01-27T18:19:15.262Z,87.27
2023-01-27T18:21:44.551Z,87.01
2023-01-27T18:24:22.121Z,86.80
2023-01-27T18:26:52.142Z,86.71
2023-01-27T18:29:32.415Z,86.50
2023-01-27T18:32:15.977Z,86.88
2023-01-27T18:34:52.398Z,87.37
2023-01-27T18:37:29.044Z,87.39
2023-01-27T18:39:59.053Z,87.60
2023-01-27T18:42:30.630Z,87.39
2023-01-27T18:45:20.669Z,87.57
2023-01-27T18:47:50.155Z,87.24
2023-01-27T18:50:21.961Z,87.59
2023-01-27T18:52:56.859Z,86.88
2023-01-27T18:55:27.682Z,86.84
2023-01-27T18:57:58.346Z,86.69
2023-01-27T19:00:34.537Z,86.92
2023-01-27T19:03:04.069Z,86.30
2023-01-27T19:05:36.779Z,86.03
2023-01-27T19:08:06.498Z,86.40
2023-01-27T19:13:23.322Z,86.28
2023-01-27T19:16:01.382Z,86.46
2023-01-27T19:18:34.068Z,86.72
2023-01-27T19:21:08.948Z,86.80
2023-01-27T19:23:38.188Z,87.11
2023-01-27T19:26:16.042Z,87.75
2023-01-27T19:28:47.520Z,87.50
2023-01-27T19:31:25.277Z,88.08
2023-01-27T19:33:59.507Z,88.48
2023-01-27T19:36:37.632Z,88.09
2023-01-27T19:39:19.629Z,88.10
2023-01-27T19:41:48.868Z,88.46
2023-01-27T19:44:18.048Z,88.53
2023-01-27T19:46:49.788Z,88.95
2023-01-27T19:49:26.826Z,89.56
2023-01-27T19:54:35.746Z,89.54
2023-01-27T19:57:05.935Z,89.77
2023-01-27T19:59:35.138Z,89.96
2023-01-27T20:02:06.292Z,90.68
2023-01-27T20:04:35.962Z,90.59
2023-01-27T20:07:05.735Z,90.77
2023-01-27T20:09:34.997Z,91.19
2023-01-27T20:12:09.188Z,90.94
2023-01-27T20:14:38.712Z,91.01
2023-01-27T20:17:09.925Z,91.42
2023-01-27T20:19:39.175Z,91.36
2023-01-27T20:22:08.264Z,91.82
2023-01-27T20:24:44.087Z,92.44
2023-01-27T20:27:13.318Z,92.42
2023-01-27T20:29:42.528Z,92.23
2023-01-27T20:32:23.712Z,92.32
2023-01-27T20:34:54.155Z,92.69
2023-01-27T20:37:23.815Z,92.57
2023-01-27T20:39:53.668Z,93.15
2023-01-27T20:42:27.855Z,93.32
2023-01-27T20:44:57.369Z,93.68
2023-01-27T20:47:28.727Z,94.22
2023-01-27T20:49:57.943Z,94.10
2023-01-27T20:52:27.231Z,94.51
2023-01-27T20:54:58.197Z,94.53
2023-01-27T20:57:30.782Z,94.00
2023-01-27T21:00:00.585Z,94.05
2023-01-27T21:02:32.234Z,94.22
2023-01-27T21:05:01.704Z,94.51
2023-01-27T21:07:32.596Z,94.72
2023-01-27T21:10:01.937Z,95.21
2023-01-27T21:12:33.091Z,94.79
2023-01-27T21:15:09.280Z,95.01
2023-01-27T21:17:40.696Z,95.64
2023-01-27T21:20:11.559Z,95.25
2023-01-27T21:22:40.735Z,95.44
2023-01-27T21:25:10.535Z,95.30
2023-01-27T21:27:41.353Z,95.06
2023-01-27T21:30:11.857Z,94.85
2023-01-27T21:32:43.281Z,94.63
2023-01-27T21:35:13.211Z,94.74
2023-01-27T21:37:52.734Z,94.47
2023-01-27T21:40:22.208Z,94.26
2023-01-27T21:43:04.386Z,94.42
2023-01-27T21:45:33.657Z,94.93
2023-01-27T21:48:05.034Z,94.80
2023-01-27T21:50:39.419Z,95.10
2023-01-27T21:53:11.683Z,95.15
2023-01-27T21:55:45.918Z,94.83
2023-01-27T21:58:15.212Z,95.08
2023-01-27T22:00:49.485Z,95.11
2023-01-27T22:03:26.024Z,95.64
2023-01-27T22:05:55.181Z,96.14
2023-01-27T22:08:24.263Z,96.22
2023-01-27T22:11:03.397Z,96.72
2023-01-27T22:13:33.059Z,96.21
2023-01-27T22:16:02.623Z,96.78
2023-01-27T22:18:33.894Z,97.00
2023-01-27T22:21:03.724Z,97.17
2023-01-27T22:23:32.819Z,97.29
2023-01-27T22:26:09.651Z,97.32
2023-01-27T22:28:39.086Z,97.48
2023-01-27T22:31:08.474Z,97.05
2023-01-27T22:33:44.712Z,97.38
2023-01-27T22:36:14.308Z,97.40
2023-01-27T22:38:43.519Z,97.31
2023-01-27T22:41:13.831Z,97.56
2023-01-27T22:43:43.054Z,99.04
2023-01-27T22:46:12.119Z,100.00
2023-01-27T22:48:46.702Z,100.00
2023-01-27T22:51:23.161Z,100.00
2023-01-27T22:53:52.538Z,100.00
2023-01-27T22:56:21.720Z,100.00
2023-01-27T22:58:58.068Z,100.00
2023-01-27T23:01:27.195Z,100.00
2023-01-27T23:03:57.044Z,100.00
2023-01-27T23:06:28.180Z,100.00
2023-01-27T23:08:57.592Z,100.00
2023-01-27T23:11:26.740Z,100.00
2023-01-27T23:13:56.260Z,100.00
2023-01-27T23:16:25.325Z,100.00
2023-01-27T23:19:00.075Z,100.00
2023-01-27T23:21:31.377Z,100.00
2023-01-27T23:24:01.259Z,100.00
2023-01-27T23:26:35.440Z,100.00
2023-01-27T23:29:10.754Z,100.00
2023-01-27T23:31:45.492Z,100.00
2023-01-27T23:34:19.725Z,100.00
2023-01-27T23:36:52.111Z,100.00
2023-01-27T23:39:21.475Z,100.00
2023-01-27T23:41:51.319Z,100.00
2023-01-27T23:44:20.458Z,100.00
2023-01-27T23:46:49.575Z,100.00
2023-01-27T23:49:18.697Z,100.00
2023-01-27T23:51:47.858Z,100.00
2023-01-27T23:54:20.152Z,100.00
2023-01-27T23:56:49.660Z,100.00
2023-01-27T23:59:18.813Z,100.00
